| time (UTC) | temp C | wind direction | speed KPH | gust KPH | rain 1hr cm | rain 24hr cm | rain mn cm | humidity % | barometer mb |
| 20260505223052 | 25 | 3 | 3.2 | 9.7 | 0.00 | 0.00 | 0.00 | 32 | 930.7 |
| 20260505221550 | 25 | 348 | 0.0 | 11.3 | 0.00 | 0.00 | 0.00 | 32 | 930.8 |
| 20260505220047 | 25 | 333 | 0.0 | 11.3 | 0.00 | 0.00 | 0.00 | 33 | 930.9 |
| 20260505214550 | 25 | 23 | 0.0 | 8.0 | 0.00 | 0.00 | 0.00 | 35 | 930.9 |
| 20260505213043 | 25 | 18 | 0.0 | 11.3 | 0.00 | 0.00 | 0.00 | 34 | 931.1 |
| 20260505211541 | 24 | 320 | 0.0 | 8.0 | 0.00 | 0.00 | 0.00 | 33 | 931.2 |
| 20260505210039 | 23 | 38 | 0.0 | 9.7 | 0.00 | 0.00 | 0.00 | 35 | 931.2 |
| 20260505204542 | 23 | 55 | 0.0 | 6.4 | 0.00 | 0.00 | 0.00 | 37 | 931.3 |
| 20260505203037 | 23 | 352 | 0.0 | 6.4 | 0.00 | 0.00 | 0.00 | 37 | 931.4 |
| 20260505201536 | 23 | 32 | 0.0 | 1.6 | 0.00 | 0.00 | 0.00 | 38 | 931.5 |
| 20260505200041 | 23 | 336 | 0.0 | 1.6 | 0.00 | 0.00 | 0.00 | 38 | 931.6 |
| 20260505194532 | 22 | 309 | 0.0 | 3.2 | 0.00 | 0.00 | 0.00 | 38 | 931.6 |
| 20260505193029 | 22 | 23 | 0.0 | 1.6 | 0.00 | 0.00 | 0.00 | 40 | 931.7 |
| 20260505191528 | 22 | 53 | 0.0 | 1.6 | 0.00 | 0.00 | 0.00 | 41 | 931.8 |
| 20260505190033 | 21 | 295 | 0.0 | 3.2 | 0.00 | 0.00 | 0.00 | 44 | 931.9 |
| 20260505184523 | 21 | 27 | 0.0 | 1.6 | 0.00 | 0.00 | 0.00 | 45 | 931.8 |
| 20260505183020 | 20 | 13 | 0.0 | 1.6 | 0.00 | 0.00 | 0.00 | 47 | 931.9 |
| 20260505181520 | 20 | 320 | 0.0 | 0.0 | 0.00 | 0.00 | 0.00 | 48 | 931.8 |
| 20260505180016 | 19 | 117 | 0.0 | 0.0 | 0.00 | 0.00 | 0.00 | 49 | 931.7 |
| 20260505174514 | 18 | 303 | 0.0 | 0.0 | 0.00 | 0.00 | 0.00 | 50 | 931.8 |
| 20260505173012 | 18 | 55 | 0.0 | 0.0 | 0.00 | 0.00 | 0.00 | 51 | 931.8 |
| 20260505171518 | 18 | 285 | 0.0 | 0.0 | 0.00 | 0.00 | 0.00 | 51 | 931.8 |
| 20260505170014 | 18 | 291 | 0.0 | 0.0 | 0.00 | 0.00 | 0.00 | 55 | 931.7 |
| 20260505164506 | 17 | 107 | 0.0 | 0.0 | 0.00 | 0.00 | 0.00 | 56 | 931.8 |
| 20260505163007 | 17 | 18 | 0.0 | 0.0 | 0.00 | 0.00 | 0.00 | 57 | 931.7 |
| 20260505161502 | 17 | 148 | 0.0 | 0.0 | 0.00 | 0.00 | 0.00 | 59 | 931.7 |
| 20260505153055 | 15 | 101 | 0.0 | 0.0 | 0.00 | 0.00 | 0.00 | 66 | 931.8 |
| 20260505151551 | 14 | 110 | 0.0 | 0.0 | 0.00 | 0.00 | 0.00 | 67 | 931.7 |
| 20260505124515 | -17 | 0.0 | 0.0 | 0.00 | 0.00 | 0.00 | 930.6 | ||
| 20260505123012 | -17 | 0.0 | 0.0 | 0.00 | 0.00 | 0.00 | 930.5 | ||
| 20260505121509 | -17 | 0.0 | 0.0 | 0.00 | 0.00 | 0.00 | 930.5 | ||
| 20260505120007 | 10 | 156 | 0.0 | 0.0 | 0.00 | 0.00 | 0.00 | 80 | 930.4 |
| 20260505114503 | 10 | 139 | 0.0 | 0.0 | 0.00 | 0.00 | 0.00 | 80 | 930.4 |
| 20260505113002 | 11 | 139 | 0.0 | 0.0 | 0.00 | 0.00 | 0.00 | 78 | 930.2 |
| 20260505111505 | 11 | 105 | 0.0 | 0.0 | 0.00 | 0.00 | 0.00 | 77 | 930.3 |
| 20260505110120 | 11 | 103 | 0.0 | 0.0 | 0.00 | 0.00 | 0.00 | 79 | 930.2 |
| 20260505101602 | 11 | 139 | 0.0 | 0.0 | 0.00 | 0.00 | 0.00 | 75 | 930.0 |
| 20260505100058 | 11 | 92 | 0.0 | 0.0 | 0.00 | 0.00 | 0.00 | 77 | 930.1 |
| 20260505094556 | 11 | 117 | 0.0 | 0.0 | 0.00 | 0.00 | 0.00 | 76 | 930.1 |
| 20260505093053 | 11 | 131 | 0.0 | 0.0 | 0.00 | 0.00 | 0.00 | 73 | 930.0 |
| 20260505091554 | 11 | 101 | 0.0 | 0.0 | 0.00 | 0.00 | 0.00 | 74 | 930.0 |
| 20260505090050 | 11 | 110 | 0.0 | 0.0 | 0.00 | 0.00 | 0.00 | 72 | 930.1 |
| 20260505084550 | 12 | 84 | 0.0 | 0.0 | 0.00 | 0.00 | 0.00 | 70 | 930.0 |
| 20260505083050 | 12 | 79 | 0.0 | 0.0 | 0.00 | 0.00 | 0.00 | 68 | 930.0 |
| 20260505081553 | 12 | 89 | 0.0 | 0.0 | 0.00 | 0.00 | 0.00 | 66 | 930.1 |
| 20260505080049 | 12 | 75 | 0.0 | 0.0 | 0.00 | 0.00 | 0.00 | 63 | 930.0 |
| 20260505074547 | 13 | 65 | 0.0 | 0.0 | 0.00 | 0.00 | 0.00 | 58 | 930.0 |
| 20260505073049 | 13 | 76 | 0.0 | 0.0 | 0.00 | 0.00 | 0.00 | 55 | 930.0 |
| 20260505071552 | 13 | 77 | 0.0 | 0.0 | 0.00 | 0.00 | 0.00 | 52 | 929.8 |
| 20260505070045 | 13 | 85 | 0.0 | 0.0 | 0.00 | 0.00 | 0.00 | 49 | 929.7 |
| 20260505064544 | 13 | 67 | 0.0 | 0.0 | 0.00 | 0.00 | 0.00 | 46 | 929.6 |
| 20260505063044 | 13 | 62 | 0.0 | 0.0 | 0.00 | 0.00 | 0.00 | 44 | 929.6 |
| 20260505061543 | 14 | 51 | 0.0 | 1.6 | 0.00 | 0.00 | 0.00 | 41 | 929.7 |
| 20260505060044 | 15 | 68 | 0.0 | 1.6 | 0.00 | 0.00 | 0.00 | 38 | 929.6 |
| 20260505054552 | 15 | 71 | 0.0 | 1.6 | 0.00 | 0.00 | 0.00 | 37 | 929.7 |
| 20260505053054 | 15 | 68 | 0.0 | 0.0 | 0.00 | 0.00 | 0.00 | 37 | 929.6 |
| 20260505051544 | 14 | 96 | 0.0 | 0.0 | 0.00 | 0.00 | 0.00 | 41 | 929.6 |
| 20260505041542 | 16 | 109 | 0.0 | 0.0 | 0.00 | 0.00 | 0.00 | 36 | 929.0 |
| 20260505040043 | 17 | 8 | 0.0 | 1.6 | 0.00 | 0.00 | 0.00 | 34 | 928.7 |
| 20260505034540 | 17 | 18 | 0.0 | 1.6 | 0.00 | 0.00 | 0.00 | 33 | 928.4 |
| 20260505033045 | 18 | 269 | 0.0 | 0.0 | 0.00 | 0.00 | 0.00 | 30 | 928.1 |
| 20260505031541 | 20 | 297 | 0.0 | 1.6 | 0.00 | 0.00 | 0.00 | 27 | 928.0 |
| 20260505030040 | 21 | 303 | 0.0 | 4.8 | 0.00 | 0.00 | 0.00 | 25 | 927.7 |
| 20260505024539 | 21 | 305 | 0.0 | 4.8 | 0.00 | 0.00 | 0.00 | 23 | 927.5 |
| 20260505023042 | 22 | 313 | 1.6 | 16.1 | 0.00 | 0.00 | 0.00 | 23 | 927.4 |
| 20260505021540 | 23 | 313 | 0.0 | 14.5 | 0.00 | 0.00 | 0.00 | 22 | 927.3 |
| 20260505020039 | 23 | 303 | 4.8 | 20.9 | 0.00 | 0.00 | 0.00 | 20 | 927.4 |
| 20260505014538 | 25 | 277 | 4.8 | 16.1 | 0.00 | 0.00 | 0.00 | 21 | 927.3 |
| 20260505013038 | 25 | 298 | 4.8 | 11.3 | 0.00 | 0.00 | 0.00 | 22 | 927.3 |
| 20260505011548 | 25 | 314 | 4.8 | 16.1 | 0.00 | 0.00 | 0.00 | 22 | 927.3 |
| 20260505010038 | 26 | 276 | 4.8 | 19.3 | 0.00 | 0.00 | 0.00 | 24 | 927.2 |
| 20260505004536 | 26 | 326 | 1.6 | 16.1 | 0.00 | 0.00 | 0.00 | 24 | 927.4 |
| 20260505003034 | 26 | 325 | 8.0 | 35.4 | 0.00 | 0.00 | 0.00 | 23 | 927.3 |
| 20260505001534 | 26 | 281 | 1.6 | 20.9 | 0.00 | 0.00 | 0.00 | 24 | 927.2 |
| 20260505000034 | 27 | 336 | 1.6 | 22.5 | 0.00 | 0.00 | 0.00 | 25 | 927.3 |
| 20260504234531 | 26 | 349 | 3.2 | 19.3 | 0.00 | 0.00 | 0.00 | 25 | 927.3 |
| 20260504233032 | 26 | 322 | 4.8 | 22.5 | 0.00 | 0.00 | 0.00 | 26 | 927.4 |
| 20260504231531 | 26 | 335 | 11.3 | 22.5 | 0.00 | 0.00 | 0.00 | 25 | 927.5 |
| 20260504230030 | 27 | 338 | 12.9 | 27.4 | 0.00 | 0.00 | 0.00 | 23 | 927.5 |
| 20260504224529 | 27 | 288 | 1.6 | 25.7 | 0.00 | 0.00 | 0.00 | 22 | 927.6 |